createdAt,value
2023-05-14T00:00:25.989Z,4.90
2023-05-14T00:02:55.133Z,4.80
2023-05-14T00:05:23.069Z,4.90
2023-05-14T00:07:50.106Z,5.00
2023-05-14T00:10:19.217Z,5.10
2023-05-14T00:12:46.317Z,5.00
2023-05-14T00:15:13.255Z,5.00
2023-05-14T00:17:40.262Z,5.10
2023-05-14T00:20:07.644Z,5.10
2023-05-14T00:22:34.871Z,5.20
2023-05-14T00:25:01.866Z,5.30
2023-05-14T00:27:28.862Z,5.50
2023-05-14T00:29:56.064Z,5.50
2023-05-14T00:32:23.586Z,5.60
2023-05-14T00:34:50.627Z,5.60
2023-05-14T00:37:17.638Z,5.50
2023-05-14T00:39:44.651Z,5.50
2023-05-14T00:42:11.667Z,5.50
2023-05-14T00:44:38.971Z,5.50
2023-05-14T00:47:06.315Z,5.50
2023-05-14T00:49:34.118Z,5.50
2023-05-14T00:52:01.226Z,5.50
2023-05-14T00:54:29.717Z,5.50
2023-05-14T00:56:57.099Z,5.60
2023-05-14T00:59:24.095Z,5.60
2023-05-14T01:01:51.253Z,5.60
2023-05-14T01:04:19.209Z,5.70
2023-05-14T01:07:28.244Z,5.70
2023-05-14T01:10:21.685Z,5.70
2023-05-14T01:13:10.484Z,5.90
2023-05-14T01:15:39.731Z,5.90
2023-05-14T01:18:12.741Z,5.80
2023-05-14T01:20:40.082Z,5.70
2023-05-14T01:23:08.388Z,5.60
2023-05-14T01:25:35.661Z,5.50
2023-05-14T01:28:29.199Z,5.50
2023-05-14T01:31:12.274Z,5.60
2023-05-14T01:33:42.525Z,5.70
2023-05-14T01:36:10.481Z,5.60
2023-05-14T01:38:38.939Z,5.50
2023-05-14T01:41:06.714Z,5.50
2023-05-14T01:43:35.074Z,5.50
2023-05-14T01:46:02.581Z,5.40
2023-05-14T01:48:30.214Z,5.40
2023-05-14T01:50:57.414Z,5.40
2023-05-14T01:53:24.865Z,5.40
2023-05-14T01:55:52.066Z,5.20
2023-05-14T01:58:20.073Z,5.10
2023-05-14T02:00:47.233Z,5.10
2023-05-14T02:03:14.292Z,5.20
2023-05-14T02:05:41.542Z,5.20
2023-05-14T02:08:08.579Z,5.40
2023-05-14T02:10:35.597Z,5.40
2023-05-14T02:13:03.651Z,5.40
2023-05-14T02:15:31.034Z,5.50
2023-05-14T02:17:58.137Z,5.50
2023-05-14T02:20:25.323Z,5.60
2023-05-14T02:22:52.489Z,5.70
2023-05-14T02:25:19.506Z,5.70
2023-05-14T02:27:46.845Z,5.60
2023-05-14T02:30:13.937Z,5.70
2023-05-14T02:32:41.279Z,5.80
2023-05-14T02:35:08.957Z,5.80
2023-05-14T02:37:36.001Z,5.80
2023-05-14T02:40:04.308Z,5.80
2023-05-14T02:42:31.759Z,5.90
2023-05-14T02:44:58.912Z,5.90
2023-05-14T02:47:26.950Z,5.90
2023-05-14T02:49:53.928Z,6.00
2023-05-14T02:52:20.899Z,6.00
2023-05-14T02:54:47.891Z,5.90
2023-05-14T02:57:14.911Z,6.00
2023-05-14T02:59:41.941Z,5.90
2023-05-14T03:02:09.489Z,6.00
2023-05-14T03:04:37.059Z,5.90
2023-05-14T03:07:04.039Z,5.90
2023-05-14T03:09:31.268Z,5.90
2023-05-14T03:11:58.406Z,5.90
2023-05-14T03:14:31.014Z,6.00
2023-05-14T03:16:58.135Z,6.00
2023-05-14T03:19:25.141Z,6.00
2023-05-14T03:21:52.266Z,6.00
2023-05-14T03:24:19.298Z,6.00
2023-05-14T03:26:46.256Z,6.10
2023-05-14T03:29:13.999Z,6.10
2023-05-14T03:31:40.979Z,6.10
2023-05-14T03:34:08.022Z,6.10
2023-05-14T03:36:36.488Z,6.10
2023-05-14T03:39:04.046Z,6.10
2023-05-14T03:41:31.103Z,6.10
2023-05-14T03:43:58.144Z,6.10
2023-05-14T03:46:25.111Z,6.10
2023-05-14T03:48:52.440Z,6.20
2023-05-14T03:51:19.498Z,6.30
2023-05-14T03:53:46.527Z,6.30
2023-05-14T03:56:14.056Z,6.30
2023-05-14T03:58:42.938Z,6.40
2023-05-14T04:01:10.079Z,6.40
2023-05-14T04:03:37.381Z,6.40
2023-05-14T04:06:04.850Z,6.50
2023-05-14T04:08:31.882Z,6.40
2023-05-14T04:11:00.804Z,6.30
2023-05-14T04:13:27.834Z,6.20
2023-05-14T04:15:58.072Z,6.20
2023-05-14T04:18:25.802Z,6.20
2023-05-14T04:20:52.806Z,6.20
2023-05-14T04:23:19.897Z,6.20
2023-05-14T04:25:46.951Z,6.30
2023-05-14T04:28:13.935Z,6.30
2023-05-14T04:30:40.992Z,6.30
2023-05-14T04:33:07.976Z,6.40
2023-05-14T04:35:35.076Z,6.30
2023-05-14T04:38:02.135Z,6.20
2023-05-14T04:40:29.168Z,6.00
2023-05-14T04:42:56.172Z,5.90
2023-05-14T04:45:23.346Z,5.80
2023-05-14T04:47:50.450Z,5.70
2023-05-14T04:50:17.654Z,5.60
2023-05-14T04:52:44.909Z,5.50
2023-05-14T04:55:12.132Z,5.60
2023-05-14T04:57:39.126Z,5.70
2023-05-14T05:00:08.080Z,5.50
2023-05-14T05:02:35.261Z,5.50
2023-05-14T05:05:03.190Z,5.40
2023-05-14T05:07:30.260Z,5.40
2023-05-14T05:09:57.312Z,5.40
2023-05-14T05:12:24.295Z,5.50
2023-05-14T05:14:51.219Z,5.60
2023-05-14T05:17:18.233Z,5.50
2023-05-14T05:19:45.243Z,5.50
2023-05-14T05:22:12.419Z,5.50
2023-05-14T05:24:39.388Z,5.50
2023-05-14T05:27:06.555Z,5.50
2023-05-14T05:29:34.913Z,5.60
2023-05-14T05:32:05.035Z,5.60
2023-05-14T05:34:32.188Z,5.80
2023-05-14T05:37:06.253Z,5.50
2023-05-14T05:39:35.292Z,5.30
2023-05-14T05:42:02.889Z,5.10
2023-05-14T05:44:29.990Z,4.90
2023-05-14T05:46:57.975Z,5.00
2023-05-14T05:49:25.149Z,5.10
2023-05-14T05:51:52.144Z,5.40
2023-05-14T05:54:19.137Z,5.60
2023-05-14T05:56:46.219Z,5.70
2023-05-14T05:59:13.484Z,5.60
2023-05-14T06:01:41.526Z,5.50
2023-05-14T06:04:08.574Z,5.30
2023-05-14T06:06:35.642Z,5.30
2023-05-14T06:09:02.817Z,5.30
2023-05-14T06:11:29.837Z,5.20
2023-05-14T06:13:56.843Z,5.30
2023-05-14T06:16:24.987Z,5.30
2023-05-14T06:19:01.678Z,5.40
2023-05-14T06:21:28.850Z,5.20
2023-05-14T06:23:55.842Z,4.90
2023-05-14T06:26:23.626Z,4.90
2023-05-14T06:28:53.731Z,4.80
2023-05-14T06:31:21.292Z,4.70
2023-05-14T06:33:48.461Z,4.70
2023-05-14T06:36:15.683Z,4.60
2023-05-14T06:38:42.676Z,4.60
2023-05-14T06:41:09.800Z,4.50
2023-05-14T06:43:36.933Z,4.60
2023-05-14T06:46:03.933Z,4.60
2023-05-14T06:48:31.262Z,4.60
2023-05-14T06:50:58.367Z,4.80
2023-05-14T06:53:25.746Z,5.00
2023-05-14T06:55:52.868Z,5.10
2023-05-14T06:58:19.969Z,5.20
2023-05-14T07:00:48.294Z,5.30
2023-05-14T07:03:15.358Z,5.50
2023-05-14T07:05:54.739Z,5.40
2023-05-14T07:08:21.772Z,5.50
2023-05-14T07:10:49.277Z,5.60
2023-05-14T07:13:16.316Z,5.80
2023-05-14T07:15:43.356Z,6.00
2023-05-14T07:18:10.491Z,6.20
2023-05-14T07:20:37.737Z,6.50
2023-05-14T07:23:04.755Z,6.70
2023-05-14T07:25:32.857Z,6.70
2023-05-14T07:27:59.911Z,6.80
2023-05-14T07:30:27.059Z,7.00
2023-05-14T07:32:54.338Z,7.30
2023-05-14T07:35:21.583Z,7.40
2023-05-14T07:37:48.765Z,7.30
2023-05-14T07:40:15.979Z,7.30
2023-05-14T07:42:43.546Z,7.40
2023-05-14T07:45:11.057Z,7.30
2023-05-14T07:47:39.252Z,7.60
2023-05-14T07:50:07.201Z,7.80
2023-05-14T07:52:34.950Z,8.10
2023-05-14T07:55:03.656Z,8.30
2023-05-14T07:57:38.511Z,8.50
2023-05-14T08:00:09.507Z,8.70
2023-05-14T08:02:42.943Z,8.80
2023-05-14T08:05:10.324Z,9.00
2023-05-14T08:07:37.336Z,9.30
2023-05-14T08:10:04.692Z,9.40
2023-05-14T08:12:32.012Z,9.40
2023-05-14T08:14:59.230Z,9.10
2023-05-14T08:17:26.469Z,9.00
2023-05-14T08:19:54.183Z,8.90
2023-05-14T08:22:21.982Z,8.80
2023-05-14T08:24:49.066Z,8.80
2023-05-14T08:27:17.345Z,8.50
2023-05-14T08:29:44.530Z,8.40
2023-05-14T08:32:22.103Z,8.40
2023-05-14T08:34:50.251Z,8.20
2023-05-14T08:37:17.558Z,7.90
2023-05-14T08:39:44.778Z,7.90
2023-05-14T08:42:14.487Z,7.80
2023-05-14T08:45:04.973Z,7.90
2023-05-14T08:47:32.178Z,8.00
2023-05-14T08:50:07.654Z,8.20
2023-05-14T08:52:35.426Z,8.10
2023-05-14T08:55:06.704Z,8.00
2023-05-14T08:57:35.027Z,8.10
2023-05-14T09:00:08.494Z,8.00
2023-05-14T09:02:36.893Z,8.00
2023-05-14T09:05:04.556Z,7.70
2023-05-14T09:07:31.962Z,7.70
2023-05-14T09:09:59.932Z,7.70
2023-05-14T09:12:26.938Z,8.00
2023-05-14T09:14:54.238Z,8.10
2023-05-14T09:17:21.715Z,7.90
2023-05-14T09:19:49.619Z,7.80
2023-05-14T09:22:18.526Z,7.80
2023-05-14T09:24:46.405Z,7.60
2023-05-14T09:27:22.793Z,7.50
2023-05-14T09:29:52.967Z,7.60
2023-05-14T09:32:20.821Z,7.70
2023-05-14T09:34:50.554Z,7.90
2023-05-14T09:37:21.750Z,8.00
2023-05-14T09:39:48.887Z,8.10
2023-05-14T09:42:18.828Z,8.20
2023-05-14T09:44:46.994Z,8.10
2023-05-14T09:47:21.803Z,8.10
2023-05-14T09:49:51.426Z,8.20
2023-05-14T09:52:23.880Z,8.30
2023-05-14T09:54:56.052Z,8.50
2023-05-14T09:57:23.656Z,8.80
2023-05-14T09:59:50.889Z,8.60
2023-05-14T10:02:27.008Z,8.40
2023-05-14T10:04:55.181Z,8.60
2023-05-14T10:07:29.928Z,8.90
2023-05-14T10:10:03.123Z,9.20
2023-05-14T10:12:34.702Z,9.40
2023-05-14T10:15:05.002Z,9.40
2023-05-14T10:17:36.401Z,9.30
2023-05-14T10:20:05.916Z,9.40
2023-05-14T10:22:35.479Z,9.60
2023-05-14T10:25:04.262Z,9.90
2023-05-14T10:27:32.116Z,9.90
2023-05-14T10:29:59.164Z,9.90
2023-05-14T10:32:26.692Z,9.90
2023-05-14T10:34:54.163Z,10.00
2023-05-14T10:37:26.643Z,9.80
2023-05-14T10:40:06.580Z,9.60
2023-05-14T10:42:43.689Z,9.50
2023-05-14T10:45:17.154Z,9.10
2023-05-14T10:47:47.678Z,9.00
2023-05-14T10:50:16.204Z,8.90
2023-05-14T10:52:46.465Z,8.80
2023-05-14T10:55:17.634Z,8.80
2023-05-14T10:57:48.334Z,8.30
2023-05-14T11:00:16.419Z,8.40
2023-05-14T11:02:45.913Z,8.30
2023-05-14T11:05:20.109Z,8.40
2023-05-14T11:07:49.104Z,8.50
2023-05-14T11:10:19.204Z,8.80
2023-05-14T11:12:47.448Z,9.00
2023-05-14T11:15:20.133Z,9.00
2023-05-14T11:17:48.434Z,9.00
2023-05-14T11:20:16.946Z,9.20
2023-05-14T11:22:45.970Z,9.30
2023-05-14T11:25:15.075Z,9.30
2023-05-14T11:27:44.314Z,9.20
2023-05-14T11:30:16.515Z,9.10
2023-05-14T11:32:49.626Z,9.40
2023-05-14T11:35:18.014Z,9.70
2023-05-14T11:37:52.499Z,9.90
2023-05-14T11:40:20.001Z,10.30
2023-05-14T11:42:47.072Z,10.60
2023-05-14T11:45:24.191Z,10.90
2023-05-14T11:47:52.529Z,11.30
2023-05-14T11:50:19.832Z,11.30
2023-05-14T11:52:48.781Z,11.70
2023-05-14T11:55:16.125Z,12.10
2023-05-14T11:57:43.229Z,12.60
2023-05-14T12:00:16.964Z,13.20
2023-05-14T12:02:44.190Z,13.60
2023-05-14T12:05:13.464Z,13.80
2023-05-14T12:07:40.686Z,13.40
2023-05-14T12:10:08.255Z,13.50
2023-05-14T12:12:40.012Z,13.60
2023-05-14T12:15:14.349Z,13.60
2023-05-14T12:17:41.510Z,13.70
2023-05-14T12:20:13.053Z,13.60
2023-05-14T12:22:42.469Z,13.40
2023-05-14T12:25:14.007Z,13.20
2023-05-14T12:27:41.778Z,12.90
2023-05-14T12:32:41.517Z,12.60
2023-05-14T12:35:09.490Z,12.60
2023-05-14T12:37:37.782Z,12.20
2023-05-14T12:40:11.772Z,12.10
2023-05-14T12:42:38.856Z,12.20
2023-05-14T12:45:08.221Z,12.40
2023-05-14T12:47:36.567Z,12.30
2023-05-14T12:50:04.635Z,12.50
2023-05-14T12:55:04.642Z,12.80
2023-05-14T12:57:31.818Z,13.10
2023-05-14T12:59:58.792Z,13.50
2023-05-14T13:02:25.792Z,14.00
2023-05-14T13:04:52.785Z,14.40
2023-05-14T13:07:20.025Z,14.70
2023-05-14T13:09:47.159Z,14.60
2023-05-14T13:12:14.153Z,14.60
2023-05-14T13:14:41.150Z,14.80
2023-05-14T13:17:08.368Z,14.80
2023-05-14T13:19:35.617Z,15.20
2023-05-14T13:22:02.819Z,15.40
2023-05-14T13:24:29.906Z,15.60
2023-05-14T13:26:56.897Z,15.60
2023-05-14T13:29:24.683Z,15.10
2023-05-14T13:31:51.737Z,15.10
2023-05-14T13:34:19.125Z,14.70
2023-05-14T13:36:47.334Z,14.50
2023-05-14T13:39:14.688Z,14.70
2023-05-14T13:41:42.176Z,14.60
2023-05-14T13:44:09.641Z,14.80
2023-05-14T13:46:36.754Z,14.90
2023-05-14T13:49:03.854Z,15.00
2023-05-14T13:51:31.477Z,15.10
2023-05-14T13:53:58.503Z,15.30
2023-05-14T13:56:26.143Z,15.40
2023-05-14T13:58:53.243Z,15.50
2023-05-14T14:01:20.332Z,15.40
2023-05-14T14:03:47.508Z,15.50
2023-05-14T14:06:14.576Z,15.10
2023-05-14T14:08:42.072Z,15.00
2023-05-14T14:11:09.113Z,14.80
2023-05-14T14:13:36.934Z,14.60
2023-05-14T14:16:04.669Z,14.10
2023-05-14T14:18:32.009Z,13.70
2023-05-14T14:20:59.321Z,13.50
2023-05-14T14:23:26.456Z,13.60
2023-05-14T14:25:53.467Z,13.60
2023-05-14T14:28:20.520Z,13.50
2023-05-14T14:30:47.873Z,13.30
2023-05-14T14:33:15.016Z,13.50
2023-05-14T14:35:42.301Z,13.60
2023-05-14T14:38:09.632Z,13.80
2023-05-14T14:40:36.762Z,14.10
2023-05-14T14:43:03.815Z,14.40
2023-05-14T14:45:31.091Z,14.60
2023-05-14T14:48:23.316Z,14.50
2023-05-14T14:51:00.149Z,14.60
2023-05-14T14:53:30.775Z,14.30
2023-05-14T14:56:04.151Z,14.10
2023-05-14T14:58:32.815Z,14.00
2023-05-14T15:01:03.032Z,13.80
2023-05-14T15:03:35.208Z,14.00
2023-05-14T15:06:04.286Z,14.00
2023-05-14T15:08:31.999Z,14.10
2023-05-14T15:10:59.601Z,14.30
2023-05-14T15:13:27.514Z,14.50
2023-05-14T15:15:54.930Z,14.60
2023-05-14T15:18:21.950Z,14.70
2023-05-14T15:20:49.136Z,14.60
2023-05-14T15:23:16.797Z,14.30
2023-05-14T15:25:45.106Z,14.20
2023-05-14T15:28:12.193Z,14.40
2023-05-14T15:30:39.668Z,14.60
2023-05-14T15:33:12.079Z,14.90
2023-05-14T15:35:40.069Z,14.80
2023-05-14T15:38:07.878Z,13.80
2023-05-14T15:40:36.172Z,12.60
2023-05-14T15:43:04.157Z,11.20
2023-05-14T15:45:31.917Z,9.80
2023-05-14T15:47:59.432Z,9.10
2023-05-14T15:50:27.769Z,8.50
2023-05-14T15:52:55.777Z,8.00
2023-05-14T15:55:23.024Z,7.70
2023-05-14T15:57:50.175Z,7.40
2023-05-14T16:00:17.848Z,7.30
2023-05-14T16:02:47.669Z,7.20
2023-05-14T16:05:15.653Z,7.00
2023-05-14T16:07:43.158Z,7.00
2023-05-14T16:10:10.620Z,6.60
2023-05-14T16:12:55.955Z,6.50
2023-05-14T16:15:23.113Z,6.20
2023-05-14T16:17:50.246Z,6.00
2023-05-14T16:20:17.335Z,5.80
2023-05-14T16:22:44.905Z,5.70
2023-05-14T16:25:12.422Z,5.70
2023-05-14T16:27:39.605Z,5.70
2023-05-14T16:30:07.573Z,5.70
2023-05-14T16:32:37.408Z,5.70
2023-05-14T16:35:04.885Z,5.70
2023-05-14T16:37:32.064Z,5.60
2023-05-14T16:39:59.102Z,5.70
2023-05-14T16:42:26.718Z,5.60
2023-05-14T16:44:53.749Z,5.60
2023-05-14T16:47:20.857Z,5.70
2023-05-14T16:49:47.836Z,5.70
2023-05-14T16:52:15.060Z,5.70
2023-05-14T16:54:42.136Z,5.70
2023-05-14T16:57:09.220Z,5.80
2023-05-14T16:59:37.092Z,5.80
2023-05-14T17:02:12.890Z,5.90
2023-05-14T17:04:42.278Z,6.00
2023-05-14T17:07:09.561Z,6.00
2023-05-14T17:09:37.099Z,6.00
2023-05-14T17:12:05.092Z,6.10
2023-05-14T17:14:34.565Z,6.10
2023-05-14T17:17:02.404Z,6.10
2023-05-14T17:19:29.597Z,6.20
2023-05-14T17:21:57.180Z,6.30
2023-05-14T17:24:25.161Z,6.50
2023-05-14T17:26:52.464Z,6.70
2023-05-14T17:30:02.905Z,6.80
2023-05-14T17:32:30.108Z,6.90
2023-05-14T17:35:00.102Z,7.10
2023-05-14T17:37:32.848Z,7.20
2023-05-14T17:40:02.255Z,7.30
2023-05-14T17:42:33.050Z,7.50
2023-05-14T17:45:04.437Z,7.60
2023-05-14T17:47:34.972Z,7.80
2023-05-14T17:50:13.962Z,7.90
2023-05-14T17:52:44.698Z,8.00
2023-05-14T17:55:12.751Z,8.10
2023-05-14T17:57:42.111Z,8.10
2023-05-14T18:00:13.186Z,8.20
2023-05-14T18:02:52.473Z,8.20
2023-05-14T18:05:24.912Z,8.20
2023-05-14T18:07:53.028Z,8.20
2023-05-14T18:10:20.816Z,8.20
2023-05-14T18:12:58.360Z,8.20
2023-05-14T18:15:27.521Z,8.00
2023-05-14T18:17:57.884Z,8.00
2023-05-14T18:20:25.060Z,8.10
2023-05-14T18:22:54.571Z,8.20
2023-05-14T18:25:25.381Z,8.20
2023-05-14T18:28:39.617Z,8.10
2023-05-14T18:31:12.310Z,8.00
2023-05-14T18:33:41.069Z,7.90
2023-05-14T18:36:09.917Z,8.00
2023-05-14T18:38:43.416Z,8.00
2023-05-14T18:41:21.599Z,8.00
2023-05-14T18:43:50.628Z,8.20
2023-05-14T18:46:36.728Z,8.20
2023-05-14T18:49:18.267Z,8.30
2023-05-14T18:51:50.298Z,8.30
2023-05-14T18:54:41.422Z,8.20
2023-05-14T18:57:11.569Z,8.10
2023-05-14T18:59:39.109Z,8.00
2023-05-14T19:02:07.555Z,8.10
2023-05-14T19:04:53.004Z,8.00
2023-05-14T19:07:24.665Z,7.90
2023-05-14T19:09:54.117Z,7.90
2023-05-14T19:12:25.222Z,7.80
2023-05-14T19:15:00.914Z,7.80
2023-05-14T19:20:33.491Z,7.90
2023-05-14T19:23:08.470Z,8.00
2023-05-14T19:25:44.750Z,8.10
2023-05-14T19:31:03.461Z,8.30
2023-05-14T19:33:35.826Z,8.30
2023-05-14T19:36:03.096Z,8.30
2023-05-14T19:41:32.388Z,8.30
2023-05-14T19:44:03.907Z,8.30
2023-05-14T19:46:41.040Z,8.20
2023-05-14T19:49:16.745Z,8.10
2023-05-14T19:51:52.337Z,8.00
2023-05-14T19:54:40.932Z,8.00
2023-05-14T19:57:14.162Z,7.90
2023-05-14T20:02:30.408Z,7.90
2023-05-14T20:05:09.527Z,8.10
2023-05-14T20:07:40.702Z,8.10
2023-05-14T20:10:08.353Z,8.30
2023-05-14T20:12:38.757Z,8.30
2023-05-14T20:15:15.778Z,8.10
2023-05-14T20:17:53.156Z,7.90
2023-05-14T20:20:25.194Z,7.80
2023-05-14T20:23:08.146Z,7.70
2023-05-14T20:25:36.340Z,7.60
2023-05-14T20:28:04.859Z,7.60
2023-05-14T20:30:32.982Z,7.50
2023-05-14T20:33:00.900Z,7.50
2023-05-14T20:35:31.368Z,7.60
2023-05-14T20:37:59.393Z,7.80
2023-05-14T20:40:37.393Z,7.90
2023-05-14T20:43:06.027Z,8.00
2023-05-14T20:45:33.831Z,8.20
2023-05-14T20:48:01.977Z,8.20
2023-05-14T20:50:29.736Z,8.30
2023-05-14T20:53:18.890Z,8.30
2023-05-14T20:55:46.647Z,8.30
2023-05-14T20:58:21.755Z,8.40
2023-05-14T21:00:49.625Z,8.40
2023-05-14T21:03:17.744Z,8.50
2023-05-14T21:05:45.662Z,8.50
2023-05-14T21:08:18.795Z,8.50
2023-05-14T21:10:46.511Z,8.50
2023-05-14T21:13:14.278Z,8.50
2023-05-14T21:15:42.059Z,8.50
2023-05-14T21:18:12.101Z,8.50
2023-05-14T21:20:42.649Z,8.60
2023-05-14T21:23:10.345Z,8.60
2023-05-14T21:25:41.234Z,8.60
2023-05-14T21:28:09.307Z,8.60
2023-05-14T21:30:44.452Z,8.50
2023-05-14T21:33:16.163Z,8.50
2023-05-14T21:35:44.015Z,8.40
2023-05-14T21:38:13.781Z,8.20
2023-05-14T21:40:41.487Z,7.90
2023-05-14T21:43:09.186Z,7.60
2023-05-14T21:45:36.814Z,7.50
2023-05-14T21:48:04.696Z,7.40
2023-05-14T21:50:32.583Z,7.40
2023-05-14T21:53:00.419Z,7.50
2023-05-14T21:55:28.777Z,7.30
2023-05-14T21:57:57.675Z,7.20
2023-05-14T22:00:25.632Z,7.30
2023-05-14T22:02:53.883Z,7.50
2023-05-14T22:05:25.508Z,7.60
2023-05-14T22:07:53.466Z,7.80
2023-05-14T22:10:21.360Z,7.90
2023-05-14T22:12:54.427Z,8.00
2023-05-14T22:15:26.751Z,8.00
2023-05-14T22:17:57.335Z,8.00
2023-05-14T22:20:25.140Z,8.00
2023-05-14T22:22:56.087Z,8.00
2023-05-14T22:25:24.259Z,8.10
2023-05-14T22:27:51.931Z,8.10
2023-05-14T22:30:19.552Z,8.20
2023-05-14T22:32:47.948Z,8.20
2023-05-14T22:35:15.381Z,8.10
2023-05-14T22:37:50.581Z,8.10
2023-05-14T22:40:23.863Z,8.10
2023-05-14T22:42:51.799Z,8.00
2023-05-14T22:45:21.610Z,8.00
2023-05-14T22:48:10.408Z,8.00
2023-05-14T22:50:38.107Z,8.10
2023-05-14T22:53:13.265Z,8.00
2023-05-14T22:55:41.088Z,8.10
2023-05-14T22:58:08.352Z,8.10
2023-05-14T23:00:36.296Z,8.10
2023-05-14T23:03:04.326Z,8.00
2023-05-14T23:05:38.349Z,8.00
2023-05-14T23:08:06.569Z,8.00
2023-05-14T23:10:38.765Z,8.10
2023-05-14T23:13:06.778Z,8.10
2023-05-14T23:15:34.558Z,8.20
2023-05-14T23:18:02.649Z,8.30
2023-05-14T23:20:32.496Z,8.30
2023-05-14T23:23:03.200Z,8.30
2023-05-14T23:25:35.491Z,8.20
2023-05-14T23:28:06.459Z,8.10
2023-05-14T23:30:37.428Z,8.00
2023-05-14T23:33:11.420Z,7.80
2023-05-14T23:35:42.234Z,7.80
2023-05-14T23:38:13.274Z,7.70
2023-05-14T23:40:43.658Z,7.60
2023-05-14T23:43:11.406Z,7.70
2023-05-14T23:45:48.373Z,7.80
2023-05-14T23:48:16.798Z,8.00
2023-05-14T23:50:54.897Z,8.00
2023-05-14T23:53:24.400Z,8.10
2023-05-14T23:55:52.768Z,8.20
2023-05-14T23:58:23.172Z,8.20
